• Join FlightAware (Why Join?)
  • Login
  • US Flag 
01:55PM EDT


 

Airport Tracker/Info


-or-


 

Live Flight TrackerFlight Track Log ✈ SVA902 ✈ 22-Dec-2012 ✈ KJFK - EBOS / OST

Flight Track Log - Related Links

Times and Time Zones

All times are in EST time to prevent confusion due to time zone crossing. See the SVA902 flight status page for this flight to view local times or setup timezone preferences in your user account.

Time Position Orientation Groundspeed Altitude Reporting Facility
EST Latitude Longitude Course Direction KTS MPH feet Rate Location/Type
08:26AM 40.6133 -73.8892 72° East 179 206 3,600  Level Boston Center
08:27AM 40.5558 -73.8358 72° East 162 186 5,000 1,620 Climbing Boston Center
08:28AM 40.5656 -73.7214 72° East 185 213 6,900 1,260 Climbing Boston Center
08:29AM 40.5772 -73.6094 72° East 248 285 7,600 1,680 Climbing Boston Center
08:30AM 40.5761 -73.4919 72° East 286 329 10,300 2,340 Climbing Boston Center
08:31AM 40.5830 -72.8514 72° East  Level FlightAware Approximate
08:31AM 40.5717 -73.3448 72° East 395 455 12,300  Level FlightAware ADS-B
08:32AM 40.5661 -73.2050 72° East 376 433 14,000 1,860 Climbing Boston Center
08:33AM 40.6003 -73.0633 72° East 406 467 16,100 2,400 Climbing Boston Center
08:34AM 40.6800 -72.9436 49° Northeast 400 460 18,900 2,400 Climbing Boston Center
08:35AM 40.7597 -72.8208 49° Northeast 429 494 21,000 1,860 Climbing Boston Center
08:36AM 40.8392 -72.6869 52° Northeast 442 509 22,700 1,800 Climbing Boston Center
08:37AM 40.9186 -72.5500 52° Northeast 457 526 24,700 1,860 Climbing Boston Center
08:38AM 41.0000 -72.4153 51° Northeast 462 532 26,500 1,320 Climbing Boston Center
08:40AM 41.1703 -72.1258 53° Northeast 489 563 28,800 1,140 Climbing Boston Center
08:41AM 41.2594 -71.9733 52° Northeast 503 579 30,000 1,020 Climbing Boston Center
08:44AM 41.5380 -71.4920 51° Northeast 540 621 33,000 780 Climbing FlightAware
08:45AM 41.6020 -71.3800 53° Northeast 539 620 33,000  Level FlightAware
08:45AM 41.6680 -71.2650 52° Northeast 539 620 33,000  Level FlightAware
08:46AM 41.7280 -71.1590 53° Northeast 539 620 33,000  Level FlightAware
08:47AM 41.7890 -71.0520 53° Northeast 541 623 33,000  Level FlightAware
08:48AM 41.8580 -70.9300 53° Northeast 541 623 33,000  Level FlightAware
08:48AM 41.9240 -70.8130 53° Northeast 540 621 33,000  Level FlightAware
08:49AM 41.9790 -70.7150 53° Northeast 541 623 33,000  Level FlightAware
08:50AM 42.0450 -70.5960 53° Northeast 540 621 33,000  Level FlightAware
08:50AM 42.1050 -70.4880 53° Northeast 541 623 33,000  Level FlightAware
08:51AM 42.1720 -70.3680 53° Northeast 542 624 33,000  Level FlightAware
08:52AM 42.2300 -70.2630 53° Northeast 543 625 33,000  Level FlightAware
08:52AM 42.2990 -70.1380 53° Northeast 544 626 33,000  Level FlightAware
08:53AM 42.3540 -70.0370 54° Northeast 546 628 33,000  Level FlightAware
08:54AM 42.4140 -69.9270 54° Northeast 548 631 33,000  Level FlightAware
08:55AM 42.4890 -69.7900 53° Northeast 548 631 33,000  Level FlightAware
08:56AM 42.5700 -69.6400 54° Northeast 548 631 33,000  Level FlightAware
08:56AM 42.6310 -69.5290 53° Northeast 548 631 33,000  Level FlightAware
08:57AM 42.6830 -69.4360 53° Northeast 548 631 33,000  Level FlightAware
08:58AM 42.7350 -69.3420 53° Northeast 548 631 33,000  Level FlightAware
08:58AM 42.7870 -69.2480 53° Northeast 548 631 33,000  Level FlightAware
08:59AM 42.8520 -69.1310 53° Northeast 548 631 33,000  Level FlightAware
09:00AM 42.9030 -69.0370 53° Northeast 548 631 33,000  Level FlightAware
09:00AM 42.9550 -68.9430 53° Northeast 548 631 33,000  Level FlightAware
09:01AM 43.0333 -68.7667 54° Northeast 550 633 33,000  Level Moncton Center
09:01AM 43.0469 -68.7406 55° Northeast 536 617 33,000  Level Boston Center
09:02AM 43.1450 -68.5581 55° Northeast 536 617 33,000  Level Boston Center
09:03AM 43.2331 -68.3900 55° Northeast 536 617 33,000  Level Boston Center
09:04AM 43.3186 -68.2217 55° Northeast 536 617 33,000  Level Boston Center
09:05AM 43.4470 -67.9700 55° Northeast 33,000  Level FlightAware
09:06AM 43.5080 -67.8520 54° Northeast 535 616 33,000  Level FlightAware
09:07AM 43.5740 -67.7200 55° Northeast 537 618 33,000  Level FlightAware
09:08AM 43.6320 -67.6060 55° Northeast 538 619 33,000  Level FlightAware
09:08AM 43.6950 -67.4810 55° Northeast 539 620 33,000  Level FlightAware
09:09AM 43.7530 -67.3660 55° Northeast 540 621 33,000  Level FlightAware
09:10AM 43.8090 -67.2540 55° Northeast 540 621 33,000  Level FlightAware
09:10AM 43.8720 -67.1260 56° Northeast 540 621 33,000  Level FlightAware
09:11AM 43.9300 -67.0110 55° Northeast 543 625 33,000  Level FlightAware
09:12AM 43.9860 -66.8960 56° Northeast 544 626 33,000  Level FlightAware
09:13AM 44.0500 -66.7650 56° Northeast 546 628 33,000  Level FlightAware
09:13AM 44.1070 -66.6510 55° Northeast 546 628 33,000  Level FlightAware
09:14AM 44.1620 -66.5360 56° Northeast 548 631 33,000  Level FlightAware
09:15AM 44.2270 -66.4030 56° Northeast 548 631 33,000  Level FlightAware
09:15AM 44.2830 -66.2870 56° Northeast 546 628 33,000  Level FlightAware
09:16AM 44.3470 -66.1530 56° Northeast 540 621 33,000  Level FlightAware
09:17AM 44.3930 -66.0580 56° Northeast 545 627 33,000  Level FlightAware
09:17AM 44.4670 -65.9020 56° Northeast 541 623 33,000  Level FlightAware
09:18AM 44.5210 -65.7880 56° Northeast 541 623 33,000  Level FlightAware
09:19AM 44.5790 -65.6650 56° Northeast 542 624 33,000  Level FlightAware
09:20AM 44.6410 -65.5340 56° Northeast 543 625 33,000  Level FlightAware
09:20AM 44.6950 -65.4200 56° Northeast 544 626 33,000  Level FlightAware
09:21AM 44.7530 -65.2950 57° Northeast 547 629 33,000  Level FlightAware
09:22AM 44.8170 -65.1570 57° Northeast 554 638 33,000  Level FlightAware
09:22AM 44.8750 -65.0310 57° Northeast 553 636 33,000  Level FlightAware
09:23AM 44.9370 -64.8960 57° Northeast 553 636 33,000  Level FlightAware
09:24AM 44.9920 -64.7780 57° Northeast 553 636 33,000  Level FlightAware
09:24AM 45.0470 -64.6560 57° Northeast 552 635 33,000  Level FlightAware
09:25AM 45.1110 -64.5150 57° Northeast 553 636 33,000  Level FlightAware
09:26AM 45.1620 -64.4020 57° Northeast 553 636 33,000 180 Level FlightAware
09:27AM 45.2330 -64.2450 57° Northeast 552 635 33,300 780 Climbing FlightAware
09:27AM 45.3020 -64.0900 58° Northeast 552 635 34,300 660 Climbing FlightAware
09:28AM 45.3450 -63.9970 57° Northeast 552 635 34,300  Level FlightAware
09:29AM 45.4040 -63.8680 57° Northeast 552 635 34,300  Level FlightAware
09:30AM 45.4510 -63.7640 57° Northeast 552 635 34,300  Level FlightAware
09:30AM 45.4980 -63.6600 57° Northeast 552 635 34,300  Level FlightAware
09:31AM 45.5460 -63.5560 57° Northeast 552 635 34,300  Level FlightAware
09:32AM 45.6050 -63.4260 57° Northeast 552 635 34,300  Level FlightAware
09:32AM 45.6520 -63.3220 57° Northeast 552 635 34,300 600 Level FlightAware
09:33AM 45.7167 -63.1000 57° Northeast 550 633 35,000 480 Climbing Moncton Center
09:34AM 45.8000 -62.9167 57° Northeast 550 633 35,000  Level Moncton Center
09:35AM 45.8833 -62.7167 59° Northeast 550 633 35,000  Level Moncton Center
09:36AM 45.9667 -62.5500 54° Northeast 550 633 35,000  Level Moncton Center
09:37AM 46.0333 -62.3500 64° Northeast 550 633 35,000  Level Moncton Center
09:38AM 46.1167 -62.1500 59° Northeast 550 633 35,000  Level Moncton Center
09:39AM 46.2000 -61.9500 59° Northeast 540 621 35,000  Level Moncton Center
09:40AM 46.2833 -61.7833 54° Northeast 540 621 35,000  Level Moncton Center
09:41AM 46.3500 -61.5833 64° Northeast 530 610 35,000  Level Moncton Center
09:41AM 46.3833 -61.5000 60° Northeast 540 621 35,000  Level Gander Center
09:42AM 46.4667 -61.3333 54° Northeast 530 610 35,000  Level Gander Center
09:43AM 46.5000 -61.2167 67° East 530 610 35,000  Level Moncton Center
09:44AM 46.5667 -61.0333 62° Northeast 530 610 35,000  Level Moncton Center
09:45AM 46.6333 -60.8667 60° Northeast 520 598 35,000  Level Moncton Center
09:46AM 46.7167 -60.6833 56° Northeast 520 598 35,000  Level Moncton Center
09:46AM 46.7500 -60.5833 64° Northeast 520 598 35,000  Level Gander Center
09:47AM 46.8167 -60.4000 62° Northeast 530 610 35,000  Level Gander Center
09:48AM 46.8500 -60.3167 60° Northeast 530 610 35,000  Level Moncton Center
09:49AM 46.9333 -60.1000 61° Northeast 530 610 35,000  Level Moncton Center
09:50AM 47.0167 -59.9333 54° Northeast 540 621 35,000  Level Moncton Center
09:51AM 47.0833 -59.7167 66° East 540 621 35,000  Level Moncton Center
09:52AM 47.1667 -59.5167 58° Northeast 540 621 35,000  Level Moncton Center
09:53AM 47.2167 -59.3500 66° East 540 621 35,000  Level Moncton Center
09:54AM 47.3000 -59.1333 60° Northeast 540 621 35,000  Level Moncton Center
09:55AM 47.3667 -58.9500 62° Northeast 540 621 35,000  Level Moncton Center
09:56AM 47.4500 -58.7833 53° Northeast 530 610 35,000  Level Moncton Center
09:57AM 47.5167 -58.5667 65° Northeast 530 610 35,000  Level Moncton Center
09:58AM 47.5833 -58.3833 62° Northeast 530 610 35,000  Level Moncton Center
09:59AM 47.6500 -58.1833 64° Northeast 540 621 35,000  Level Moncton Center
10:00AM 47.7167 -57.9667 65° Northeast 550 633 35,000  Level Moncton Center
10:01AM 47.8000 -57.7667 58° Northeast 550 633 35,000  Level Moncton Center
10:01AM 47.8167 -57.6667 76° East 550 633 35,000  Level Gander Center
10:02AM 47.8667 -57.5833 48° Northeast 550 633 35,000  Level Moncton Center
10:03AM 47.9167 -57.3667 71° East 550 633 35,000  Level Moncton Center
10:04AM 47.9833 -57.1667 63° Northeast 550 633 35,000  Level Moncton Center
10:05AM 48.0667 -56.9500 60° Northeast 550 633 35,000  Level Moncton Center
10:05AM 48.0833 -56.8500 76° East 550 633 35,000  Level Gander Center
10:06AM 48.1500 -56.6500 63° Northeast 550 633 35,000  Level Gander Center
10:07AM 48.2167 -56.4333 65° Northeast 550 633 35,000  Level Gander Center
10:08AM 48.2833 -56.2333 63° Northeast 550 633 35,000  Level Gander Center
10:09AM 48.3500 -56.0333 63° Northeast 550 633 35,000  Level Gander Center
10:10AM 48.4167 -55.8167 65° Northeast 560 644 35,000  Level Gander Center
10:11AM 48.4500 -55.7000 67° East 560 644 35,000  Level Moncton Center
10:11AM 48.4667 -55.6000 76° East 550 633 35,000  Level Gander Center
10:12AM 48.5333 -55.4000 63° Northeast 530 610 35,000  Level Gander Center
10:13AM 48.6000 -55.1833 65° Northeast 530 610 35,000  Level Gander Center
10:14AM 48.6500 -54.9833 69° East 530 610 35,000  Level Gander Center
10:15AM 48.7167 -54.8000 61° Northeast 530 610 35,000  Level Gander Center
10:16AM 48.7667 -54.5833 71° East 520 598 35,000  Level Gander Center
10:17AM 48.8167 -54.4000 67° East 520 598 35,000  Level Gander Center
10:18AM 48.9000 -54.1833 60° Northeast 520 598 35,000  Level Gander Center
10:19AM 48.9500 -53.9667 71° East 520 598 35,000  Level Gander Center
10:20AM 49.0000 -53.7500 71° East 530 610 35,000  Level Gander Center
10:21AM 49.0500 -53.5667 67° East 530 610 35,000  Level Gander Center
10:22AM 49.1167 -53.3500 65° Northeast 530 610 35,000  Level Gander Center
10:23AM 49.1833 -53.1333 65° Northeast 530 610 35,000  Level Gander Center
10:24AM 49.2333 -52.9500 67° East 530 610 35,000  Level Gander Center
10:25AM 49.2833 -52.7667 67° East 530 610 35,000  Level Gander Center
10:26AM 49.3333 -52.5500 70° East 530 610 35,000  Level Gander Center
10:27AM 49.4000 -52.3000 68° East 530 610 35,000  Level Gander Center
10:28AM 49.4500 -52.1167 67° East 530 610 35,000  Level Gander Center
10:29AM 49.5000 -51.9000 70° East 520 598 35,000  Level Gander Center
10:30AM 49.5500 -51.6833 70° East 520 598 35,000  Level Gander Center
10:31AM 49.6167 -51.4833 63° Northeast 520 598 35,000  Level Gander Center
10:32AM 49.6667 -51.2667 70° East 510 587 35,000  Level Gander Center
10:33AM 49.7167 -51.0667 69° East 510 587 35,000  Level Gander Center
10:34AM 49.7667 -50.8500 70° East 510 587 35,000  Level Gander Center
10:35AM 49.8167 -50.6667 67° East 500 575 35,000  Level Gander Center
10:36AM 49.8333 -50.5667 75° East 510 587 35,000  Level Moncton Center
10:37AM 49.8833 -50.3333 72° East 510 587 35,000  Level Moncton Center
10:37AM 49.9000 -50.2500 73° East 510 587 35,000  Level Gander Center
10:38AM 49.9500 -50.0500 69° East 500 575 35,000  Level Gander Center
10:39AM 49.9833 -49.9333 66° East 510 587 35,000  Level Moncton Center
10:39AM 50.0000 -49.8667 69° East 510 587 35,000  Level Gander Center
10:40AM 50.0000 -50.0000 77° East 514 592 35,000  Level ETMS Enhanced Traffic Management System
10:40AM 50.0333 -49.6333 77° East 500 575 35,000  Level Gander Center
10:42AM 50.0759 -49.3326 77° East  Level FlightAware Approximate
10:49AM 50.2794 -47.8031 78° East  Level FlightAware Approximate
10:50AM 50.3068 -47.5835 79° East  Level FlightAware Approximate
10:51AM 50.3338 -47.3637 79° East  Level FlightAware Approximate
10:52AM 50.3604 -47.1437 79° East  Level FlightAware Approximate
10:53AM 50.3865 -46.9234 79° East  Level FlightAware Approximate
10:54AM 50.4123 -46.7028 80° East  Level FlightAware Approximate
10:55AM 50.4376 -46.4821 80° East  Level FlightAware Approximate
10:56AM 50.4626 -46.2610 80° East  Level FlightAware Approximate
10:57AM 50.4870 -46.0398 80° East  Level FlightAware Approximate
10:58AM 50.5111 -45.8183 80° East  Level FlightAware Approximate
10:59AM 50.5348 -45.5966 80° East  Level FlightAware Approximate
11:00AM 50.5580 -45.3747 81° East  Level FlightAware Approximate
11:01AM 50.5808 -45.1526 81° East  Level FlightAware Approximate
11:02AM 50.6032 -44.9303 81° East  Level FlightAware Approximate
11:03AM 50.6252 -44.7077 81° East  Level FlightAware Approximate
11:04AM 50.6468 -44.4850 81° East  Level FlightAware Approximate
11:05AM 50.6679 -44.2620 81° East  Level FlightAware Approximate
11:06AM 50.6886 -44.0388 82° East  Level FlightAware Approximate
11:07AM 50.7089 -43.8155 82° East  Level FlightAware Approximate
11:08AM 50.7287 -43.5919 82° East  Level FlightAware Approximate
11:09AM 50.7481 -43.3682 82° East  Level FlightAware Approximate
11:10AM 50.7671 -43.1443 82° East  Level FlightAware Approximate
11:11AM 50.7857 -42.9202 82° East  Level FlightAware Approximate
11:12AM 50.8038 -42.6959 83° East  Level FlightAware Approximate
11:13AM 50.8218 -42.4714 82° East  Level FlightAware Approximate
11:14AM 50.8402 -42.2470 83° East  Level FlightAware Approximate
11:15AM 50.8582 -42.0225 83° East  Level FlightAware Approximate
11:16AM 50.8757 -41.7977 83° East  Level FlightAware Approximate
11:17AM 50.8928 -41.5728 83° East  Level FlightAware Approximate
11:18AM 50.9095 -41.3477 83° East  Level FlightAware Approximate
11:19AM 50.9257 -41.1225 83° East  Level FlightAware Approximate
11:20AM 50.9415 -40.8971 84° East  Level FlightAware Approximate
11:21AM 50.9569 -40.6716 84° East  Level FlightAware Approximate
11:22AM 50.9718 -40.4459 84° East  Level FlightAware Approximate
11:23AM 50.9863 -40.2201 84° East  Level FlightAware Approximate
11:24AM 51.0008 -39.9942 77° East  Level FlightAware Approximate
11:25AM 51.0324 -39.7727 77° East  Level FlightAware Approximate
11:26AM 51.0635 -39.5508 77° East  Level FlightAware Approximate
11:27AM 51.0943 -39.3286 77° East  Level FlightAware Approximate
11:28AM 51.1246 -39.1062 78° East  Level FlightAware Approximate
11:28AM 51.0000 -40.0000 77° East 503 579 35,000  Level ETMS Enhanced Traffic Management System
11:29AM 51.1545 -38.8834 78° East  Level FlightAware Approximate
11:30AM 51.1839 -38.6604 78° East  Level FlightAware Approximate
11:31AM 51.2130 -38.4370 78° East  Level FlightAware Approximate
11:32AM 51.2416 -38.2135 78° East  Level FlightAware Approximate
11:33AM 51.2698 -37.9896 79° East  Level FlightAware Approximate
11:34AM 51.2490 -38.6926 79° East 503 579 35,000  Level Estimated
11:35AM 51.2757 -38.4682 79° East  Level FlightAware Approximate
11:36AM 51.3019 -38.2435 79° East  Level FlightAware Approximate
11:37AM 51.3276 -38.0187 80° East  Level FlightAware Approximate
11:38AM 51.3530 -37.7935 80° East  Level FlightAware Approximate
11:39AM 51.3779 -37.5681 80° East  Level FlightAware Approximate
11:40AM 51.4024 -37.3425 80° East  Level FlightAware Approximate
11:41AM 51.4265 -37.1166 80° East  Level FlightAware Approximate
11:42AM 51.4501 -36.8905 80° East  Level FlightAware Approximate
11:43AM 51.4733 -36.6641 81° East  Level FlightAware Approximate
11:44AM 51.4960 -36.4375 81° East  Level FlightAware Approximate
11:45AM 51.5183 -36.2107 81° East  Level FlightAware Approximate
11:46AM 51.5402 -35.9837 81° East  Level FlightAware Approximate
11:47AM 51.5616 -35.7565 81° East  Level FlightAware Approximate
11:48AM 51.5826 -35.5290 81° East  Level FlightAware Approximate
11:49AM 51.6032 -35.3014 82° East  Level FlightAware Approximate
11:50AM 51.6233 -35.0735 82° East  Level FlightAware Approximate
11:51AM 51.6430 -34.8454 82° East  Level FlightAware Approximate
11:52AM 51.6622 -34.6172 82° East  Level FlightAware Approximate
11:53AM 51.6810 -34.3887 82° East  Level FlightAware Approximate
11:54AM 51.6993 -34.1601 83° East  Level FlightAware Approximate
11:55AM 51.7172 -33.9313 83° East  Level FlightAware Approximate
11:56AM 51.7347 -33.7023 83° East  Level FlightAware Approximate
11:57AM 51.7517 -33.4731 83° East  Level FlightAware Approximate
11:58AM 51.7683 -33.2437 83° East  Level FlightAware Approximate
11:59AM 51.8000 -33.0185 82° East  Level Estimated
12:00PM 51.8179 -32.7892 83° East  Level FlightAware Approximate
12:01PM 51.8355 -32.5597 83° East  Level FlightAware Approximate
12:02PM 51.8526 -32.3300 83° East  Level FlightAware Approximate
12:03PM 51.8692 -32.1001 83° East  Level FlightAware Approximate
12:04PM 51.8854 -31.8701 83° East  Level FlightAware Approximate
12:05PM 51.9011 -31.6399 84° East  Level FlightAware Approximate
12:06PM 51.9164 -31.4096 84° East  Level FlightAware Approximate
12:07PM 51.9313 -31.1791 84° East  Level FlightAware Approximate
12:08PM 51.9456 -30.9485 84° East  Level FlightAware Approximate
12:09PM 51.9596 -30.7177 84° East  Level FlightAware Approximate
12:10PM 51.9873 -30.4901 68° East  Level Estimated
12:11PM 52.0279 -30.2675 73° East  Level FlightAware Approximate
12:12PM 52.0681 -30.0445 74° East  Level FlightAware Approximate
12:13PM 52.1078 -29.8211 74° East  Level FlightAware Approximate
12:13PM 52.0000 -30.0000 68° East 530 610 35,000  Level ETMS Enhanced Traffic Management System
12:14PM 52.1472 -29.5972 74° East  Level FlightAware Approximate
12:15PM 52.1724 -29.3679 68° East  Level Estimated
12:16PM 52.2250 -29.1511 68° East  Level FlightAware Approximate
12:17PM 52.2773 -28.9339 68° East  Level FlightAware Approximate
12:18PM 52.3291 -28.7161 69° East  Level FlightAware Approximate
12:19PM 52.1476 -28.6793 69° East 530 610 35,000  Level Estimated
12:20PM 52.2024 -28.4680 67° East  Level FlightAware Approximate
12:21PM 52.2568 -28.2562 67° East  Level FlightAware Approximate
12:22PM 52.3107 -28.0439 67° East  Level FlightAware Approximate
12:23PM 52.3644 -27.8312 68° East  Level FlightAware Approximate
12:24PM 52.4176 -27.6178 68° East  Level FlightAware Approximate
12:25PM 52.4704 -27.4040 68° East  Level FlightAware Approximate
12:26PM 52.5229 -27.1897 68° East  Level FlightAware Approximate
12:27PM 52.5750 -26.9748 68° East  Level FlightAware Approximate
12:28PM 52.6266 -26.7595 68° East  Level FlightAware Approximate
12:29PM 52.6779 -26.5436 69° East  Level FlightAware Approximate
12:30PM 52.7288 -26.3272 69° East  Level FlightAware Approximate
12:31PM 52.7793 -26.1103 69° East  Level FlightAware Approximate
12:32PM 52.8294 -25.8930 69° East  Level FlightAware Approximate
12:33PM 52.8791 -25.6751 69° East  Level FlightAware Approximate
12:34PM 52.9284 -25.4567 69° East  Level FlightAware Approximate
12:35PM 52.9773 -25.2378 70° East  Level FlightAware Approximate
12:36PM 53.0258 -25.0184 70° East  Level FlightAware Approximate
12:37PM 53.0739 -24.7986 70° East  Level FlightAware Approximate
12:38PM 53.1216 -24.5782 70° East  Level FlightAware Approximate
12:39PM 53.1689 -24.3574 70° East  Level FlightAware Approximate
12:40PM 53.2158 -24.1361 70° East  Level FlightAware Approximate
12:41PM 53.2622 -23.9143 71° East  Level FlightAware Approximate
12:42PM 53.3083 -23.6920 71° East  Level FlightAware Approximate
12:43PM 53.3539 -23.4692 71° East  Level FlightAware Approximate
12:44PM 53.3992 -23.2460 71° East  Level FlightAware Approximate
12:45PM 53.4440 -23.0223 71° East  Level FlightAware Approximate
12:46PM 53.4883 -22.7981 72° East  Level FlightAware Approximate
12:47PM 53.5323 -22.5735 72° East  Level FlightAware Approximate
12:48PM 53.5759 -22.3484 72° East  Level FlightAware Approximate
12:49PM 53.6190 -22.1228 72° East  Level FlightAware Approximate
12:50PM 53.6617 -21.8967 72° East  Level FlightAware Approximate
12:51PM 53.7039 -21.6702 72° East  Level FlightAware Approximate
12:52PM 53.7458 -21.4433 73° East  Level FlightAware Approximate
12:53PM 53.7872 -21.2159 73° East  Level FlightAware Approximate
12:54PM 53.8282 -20.9881 73° East  Level FlightAware Approximate
12:55PM 53.8265 -20.7498 97° East  Level Estimated
12:56PM 53.8205 -20.5118 92° East  Level FlightAware Approximate
12:57PM 53.8141 -20.2738 93° East  Level FlightAware Approximate
12:58PM 53.8073 -20.0359 93° East  Level FlightAware Approximate
12:59PM 53.7999 -19.7980 93° East  Level FlightAware Approximate
01:00PM 53.7921 -19.5603 93° East  Level FlightAware Approximate
01:01PM 53.7838 -19.3227 93° East  Level FlightAware Approximate
01:02PM 53.7751 -19.0851 93° East  Level FlightAware Approximate
01:03PM 53.7659 -18.8477 94° East  Level FlightAware Approximate
01:04PM 53.7562 -18.6103 94° East  Level FlightAware Approximate
01:05PM 53.7460 -18.3731 94° East  Level FlightAware Approximate
01:06PM 53.7354 -18.1360 94° East  Level FlightAware Approximate
01:07PM 53.7243 -17.8990 94° East  Level FlightAware Approximate
01:08PM 53.7127 -17.6621 95° East  Level FlightAware Approximate
01:09PM 53.7007 -17.4254 95° East  Level FlightAware Approximate
01:10PM 53.6882 -17.1888 95° East  Level FlightAware Approximate
01:11PM 53.6752 -16.9523 95° East  Level FlightAware Approximate
01:12PM 53.6618 -16.7160 95° East  Level FlightAware Approximate
01:13PM 53.6479 -16.4799 96° East  Level FlightAware Approximate
01:14PM 53.6335 -16.2439 96° East  Level FlightAware Approximate
01:15PM 53.6187 -16.0081 96° East  Level FlightAware Approximate
01:16PM 53.6034 -15.7724 96° East  Level FlightAware Approximate
01:17PM 53.5923 -15.5361 101° East  Level Estimated
01:17PM 53.9700 -14.2050 101° East 520 598 35,000  Level FlightAware
01:17PM 53.9480 -14.0520 104° East 523 602 35,000  Level FlightAware
01:18PM 53.9220 -13.8940 106° East 523 602 35,000  Level FlightAware
01:19PM 53.8910 -13.7150 106° East 527 606 35,000  Level FlightAware
01:19PM 53.8670 -13.5790 107° East 527 606 35,000  Level FlightAware
01:20PM 53.8320 -13.3750 106° East 527 606 35,000  Level FlightAware
01:21PM 53.8040 -13.2170 107° East 529 609 35,000  Level FlightAware
01:22PM 53.7750 -13.0580 107° East 531 611 35,000  Level FlightAware
01:22PM 53.7430 -12.8790 107° East 534 615 35,000  Level FlightAware
01:23PM 53.7150 -12.7220 107° East 539 620 35,000  Level FlightAware
01:24PM 53.6800 -12.5360 108° East 541 623 35,000  Level FlightAware
01:25PM 53.6470 -12.3580 107° East 544 626 35,000  Level FlightAware
01:25PM 53.6160 -12.1960 108° East 546 628 35,000  Level FlightAware
01:26PM 53.5860 -12.0330 107° East 545 627 35,000  Level FlightAware
01:27PM 53.5510 -11.8530 108° East 549 632 35,000  Level FlightAware
01:27PM 53.5190 -11.6860 108° East 552 635 35,000  Level FlightAware
01:28PM 53.4840 -11.5060 108° East 555 639 35,000  Level FlightAware
01:29PM 53.4510 -11.3410 109° East 559 643 35,000  Level FlightAware
01:29PM 53.4140 -11.1560 108° East 561 646 35,000  Level FlightAware
01:30PM 53.3800 -10.9870 109° East 565 650 35,000  Level FlightAware
01:31PM 53.3470 -10.8230 109° East 566 651 35,000  Level FlightAware
01:32PM 53.3100 -10.6370 108° East 569 655 35,000  Level FlightAware
01:32PM 53.2740 -10.4650 109° East 568 654 35,000  Level FlightAware
01:33PM 53.2410 -10.3050 109° East 567 652 35,000  Level FlightAware
01:34PM 53.2020 -10.1160 109° East 566 651 35,000  Level FlightAware
01:34PM 53.1670 -9.9520 110° East 562 647 35,000  Level FlightAware
01:35PM 53.1310 -9.7850 110° East 559 643 35,000  Level FlightAware
01:36PM 53.0940 -9.6100 109° East 555 639 35,000  Level FlightAware
01:36PM 53.0600 -9.4520 110° East 551 634 35,000  Level FlightAware
01:37PM 53.0240 -9.2890 110° East 549 632 35,000  Level FlightAware
01:38PM 52.9840 -9.1060 110° East 554 638 35,000  Level FlightAware
01:38PM 52.9480 -8.9430 110° East 556 640 35,000  Level FlightAware
01:39PM 52.9130 -8.7870 110° East 556 640 35,000  Level FlightAware
01:40PM 52.8730 -8.6090 110° East 557 641 35,000  Level FlightAware
01:41PM 52.8310 -8.4260 111° Southeast 557 641 35,000  Level FlightAware
01:41PM 52.7950 -8.2700 111° Southeast 559 643 35,000  Level FlightAware
01:42PM 52.7530 -8.0870 111° Southeast 561 646 35,000  Level FlightAware
01:43PM 52.7170 -7.9310 111° Southeast 562 647 35,000  Level FlightAware
01:43PM 52.6830 -7.7880 111° Southeast 561 646 35,000  Level FlightAware
01:44PM 52.6410 -7.6100 111° Southeast 559 643 35,000  Level FlightAware
01:45PM 52.5990 -7.4310 111° Southeast 559 643 35,000  Level FlightAware
01:45PM 52.5600 -7.2720 112° Southeast 561 646 35,000  Level FlightAware
01:46PM 52.5180 -7.0980 112° Southeast 561 646 35,000  Level FlightAware
01:47PM 52.4790 -6.9380 112° Southeast 558 642 35,000  Level FlightAware
01:48PM 52.4370 -6.7650 112° Southeast 557 641 35,000  Level FlightAware
01:48PM 52.4000 -6.6090 111° Southeast 566 651 35,000  Level FlightAware
01:49PM 52.3730 -6.4320 104° East 575 662 35,000  Level FlightAware
01:50PM 52.3470 -6.2450 103° East 577 664 35,000  Level FlightAware
01:50PM 52.3220 -6.0770 104° East 577 664 35,000  Level FlightAware
01:51PM 52.2950 -5.9030 104° East 577 664 35,000  Level FlightAware
01:52PM 52.2630 -5.7120 105° East 573 659 35,000  Level FlightAware
01:52PM 52.2380 -5.5420 103° East 571 657 35,000  Level FlightAware
01:53PM 52.2140 -5.3860 104° East 568 654 35,000  Level FlightAware
01:54PM 52.1850 -5.1960 104° East 564 649 35,000  Level FlightAware
01:55PM 52.1590 -5.0300 104° East 567 652 35,000  Level FlightAware
01:55PM 52.1300 -4.8510 105° East 567 652 35,000  Level FlightAware
01:56PM 52.1050 -4.6890 104° East 568 654 35,000  Level FlightAware
01:57PM 52.0740 -4.4970 105° East 569 655 35,000  Level FlightAware
01:57PM 52.0460 -4.3290 105° East 572 658 35,000  Level FlightAware
01:57PM 52.1031 -4.6786 285° West 568 654 35,000  Level FlightAware ADS-B
01:58PM 52.0200 -4.1650 105° East 575 662 35,000  Level FlightAware
01:58PM 52.0869 -4.5781 285° West 569 655 35,000  Level FlightAware ADS-B
01:59PM 52.0728 -4.4907 105° East 569 655 35,000  Level FlightAware ADS-B
01:59PM 52.0556 -4.3858 105° East 572 658 35,000  Level FlightAware ADS-B
02:00PM 52.0394 -4.2855 105° East 574 661 35,000  Level FlightAware ADS-B
02:00PM 52.0237 -4.1890 105° East 575 662 35,000  Level FlightAware ADS-B
02:01PM 52.0059 -4.0817 105° East 576 663 35,000  Level FlightAware ADS-B
02:01PM 51.9858 -3.9610 105° East 576 663 35,000  Level FlightAware ADS-B
02:01PM 51.9754 -3.8987 105° East 576 663 35,000  Level FlightAware ADS-B
02:02PM 51.9587 -3.7998 105° East 576 663 35,000  Level FlightAware ADS-B
02:02PM 51.9357 -3.6627 105° East 578 665 35,000  Level FlightAware ADS-B
02:03PM 51.9187 -3.5629 105° East 578 665 35,000  Level FlightAware ADS-B
02:03PM 51.8936 -3.4167 105° East 577 664 35,000  Level FlightAware ADS-B
02:04PM 51.8638 -3.2442 106° East 577 664 35,000  Level FlightAware ADS-B
02:04PM 51.8369 -3.0892 106° East 577 664 35,000  Level FlightAware ADS-B
02:05PM 51.8147 -2.9628 106° East 575 662 35,000  Level FlightAware ADS-B
02:06PM 51.7875 -2.8100 106° East 574 661 35,000  Level FlightAware ADS-B
02:06PM 51.7615 -2.6645 106° East 575 662 35,000  Level FlightAware ADS-B
02:06PM 51.7460 -2.5775 106° East 574 661 35,000  Level FlightAware ADS-B
02:07PM 51.7401 -2.5367 103° East 575 662 35,000  Level FlightAware ADS-B
02:07PM 51.7385 -2.5233 101° East 575 662 35,000  Level FlightAware ADS-B
02:07PM 51.7343 -2.4819 99° East 576 663 35,000  Level FlightAware ADS-B
02:07PM 51.7229 -2.3552 98° East 580 667 35,000  Level FlightAware ADS-B
02:08PM 51.7170 -2.2885 98° East 582 670 35,000  Level FlightAware ADS-B
02:08PM 51.7094 -2.2073 99° East 583 671 35,000  Level FlightAware ADS-B
02:08PM 51.7042 -2.1525 99° East 583 671 35,000  Level FlightAware ADS-B
02:08PM 51.7017 -2.1269 99° East 582 670 35,000  Level FlightAware ADS-B
02:09PM 51.6908 -2.0193 99° East 582 670 35,000  Level FlightAware ADS-B
02:09PM 51.6811 -1.9275 100° East 581 669 35,000  Level FlightAware ADS-B
02:10PM 51.6703 -1.8291 100° East 580 667 35,000  Level FlightAware ADS-B
02:10PM 51.6645 -1.7766 100° East 579 666 35,000  Level FlightAware ADS-B
02:10PM 51.6524 -1.6693 100° East 577 664 35,000  Level FlightAware ADS-B
02:11PM 51.6380 -1.5420 100° East 578 665 35,000  Level FlightAware ADS-B
02:11PM 51.6290 -1.4618 100° East 578 665 35,000  Level FlightAware ADS-B
02:12PM 51.6191 -1.3740 100° East 579 666 35,000  Level FlightAware ADS-B
02:12PM 51.6052 -1.2515 100° East 580 667 35,000  Level FlightAware ADS-B
02:12PM 51.5950 -1.1619 100° East 580 667 35,000  Level FlightAware ADS-B
02:13PM 51.5764 -1.0000 100° East 583 671 35,000  Level FlightAware ADS-B
02:13PM 51.5642 -0.8955 101° East 584 672 35,000  Level FlightAware ADS-B
02:13PM 51.5546 -0.8129 101° East 584 672 35,000  Level FlightAware ADS-B
02:14PM 51.5506 -0.7782 100° East 582 670 35,000 -600 Level FlightAware ADS-B
02:14PM 51.5361 -0.6562 101° East 575 662 34,600 -1,020 Descending FlightAware ADS-B
02:14PM 51.5217 -0.5356 101° East 568 654 34,200 -2,040 Descending FlightAware ADS-B
02:15PM 51.5117 -0.4518 101° East 562 647 33,600 -2,160 Descending FlightAware ADS-B
02:15PM 51.4995 -0.3497 101° East 554 638 32,900 -2,220 Descending FlightAware ADS-B
02:15PM 51.4898 -0.2697 101° East 548 631 32,300 -2,040 Descending FlightAware ADS-B
02:16PM 51.4815 -0.2009 101° East 543 625 31,700 -1,500 Descending FlightAware ADS-B
02:16PM 51.4681 -0.0917 101° East 534 615 30,900 -1,800 Descending FlightAware ADS-B
02:17PM 51.4536 0.0241 101° East 524 603 29,900 -1,980 Descending FlightAware ADS-B
02:17PM 51.4405 0.1288 101° East 518 596 29,000 -2,220 Descending FlightAware ADS-B
02:18PM 51.4231 0.2671 101° East 509 586 27,700 -2,520 Descending FlightAware ADS-B
02:18PM 51.4141 0.3374 102° East 503 579 27,100 -1,740 Descending FlightAware ADS-B
02:18PM 51.4027 0.4275 101° East 494 568 26,500 -1,740 Descending FlightAware ADS-B
02:19PM 51.3929 0.5043 102° East 491 565 25,800 -1,740 Descending FlightAware ADS-B
02:19PM 51.3826 0.5836 102° East 488 562 25,000 -1,860 Descending FlightAware ADS-B
02:20PM 51.3684 0.6923 102° East 483 556 23,900 -1,860 Descending FlightAware ADS-B
02:20PM 51.3524 0.8151 102° East 477 549 23,000 -1,620 Descending FlightAware ADS-B
02:21PM 51.3359 0.9400 102° East 456 525 22,100 -1,740 Descending FlightAware ADS-B
02:21PM 51.3207 1.0542 102° East 449 517 21,000 -2,100 Descending FlightAware ADS-B
02:22PM 51.3045 1.1741 102° East 441 507 19,700 -4,140 Descending FlightAware ADS-B
02:23PM 51.2330 1.6910 102° East 419 482 13,700 -3,960 Descending FlightAware
02:24PM 51.2170 1.8100 102° East 421 484 12,400 -1,800 Descending FlightAware
02:25PM 51.1970 1.9470 103° East 411 473 11,200 -1,200 Descending FlightAware
02:25PM 51.1810 2.0590 103° East 383 441 10,700 -960 Descending FlightAware
02:26PM 51.1680 2.1510 103° East 370 426 10,000 -600 Descending FlightAware
02:26PM 51.1550 2.2430 103° East 331 381 10,000 -540 Level FlightAware
02:27PM 51.1470 2.2940 104° East 326 375 9,500 -1,440 Descending FlightAware
02:27PM 51.1540 2.3820 83° East 323 372 8,700 -1,440 Descending FlightAware
02:28PM 51.1630 2.4280 73° East 320 368 8,200 -1,140 Descending FlightAware
02:28PM 51.1750 2.4900 73° East 311 358 7,700 -1,200 Descending FlightAware
02:29PM 51.1860 2.5470 73° East 305 351 7,200 -1,200 Descending FlightAware
02:29PM 51.1970 2.6030 73° East 304 350 6,700 -1,020 Descending FlightAware
02:30PM 51.2100 2.6650 71° East 301 346 6,100 -720 Descending FlightAware
02:30PM 51.2220 2.7250 72° East 296 341 6,000 -120 Descending FlightAware
02:31PM 51.2330 2.7830 73° East 298 343 6,000  Level FlightAware
02:31PM 51.2430 2.8370 74° East 296 341 6,000 -120 Level FlightAware
02:32PM 51.2570 2.9080 72° East 276 318 5,900 -480 Descending FlightAware
02:32PM 51.2640 2.9470 74° East 263 303 5,600 -840 Descending FlightAware
02:32PM 51.2720 2.9930 74° East 247 284 5,200 -1,140 Descending FlightAware
02:33PM 51.2820 3.0520 75° East 245 282 4,500 -1,320 Descending FlightAware
02:33PM 51.2880 3.0810 72° East 244 281 4,100 -1,560 Descending FlightAware
02:34PM 51.2940 3.1180 75° East 242 278 3,600 -1,320 Descending FlightAware
02:34PM 51.2860 3.1670 105° East 219 252 3,000 -480 Descending FlightAware
02:37PM 51.1989 2.8622 51° Northeast  Level Estimated
02:37PM 51.2290 3.0680 51° Northeast 136 157 2,300  Level FlightAware
02:39PM 51.1989 2.8622 51° Northeast  Level Estimated
02:40PM 51.1989 2.8622 51° Northeast  Level Estimated
02:41PM 51.1989 2.8622 51° Northeast  Level Estimated
02:42PM 51.1989 2.8622 51° Northeast  Level Estimated
02:43PM 51.1989 2.8622 51° Northeast  Level Estimated
02:44PM 51.1989 2.8622 51° Northeast  Level Estimated
02:45PM 51.1989 2.8622 51° Northeast  Level Estimated
02:46PM 51.1989 2.8622 51° Northeast  Level Estimated
02:47PM 51.1989 2.8622 51° Northeast  Level Estimated
02:48PM 51.1989 2.8622 51° Northeast  Level Estimated
02:49PM 51.1989 2.8622 51° Northeast  Level Estimated
02:50PM 51.1989 2.8622 51° Northeast  Level Estimated
02:51PM 51.1989 2.8622 51° Northeast  Level Estimated
02:52PM 51.1989 2.8622 51° Northeast  Level Estimated
02:53PM 51.1989 2.8622 51° Northeast  Level Estimated
02:54PM 51.1989 2.8622 51° Northeast  Level Estimated